sensor_id;sensor_type;location;lat;lon;timestamp;P1;durP1;ratioP1;P2;durP2;ratioP2
2173;SDS011;1093;51.424;11.764;2023-10-09T00:00:33;7.53;;;5.90;;
2173;SDS011;1093;51.424;11.764;2023-10-09T00:03:26;13.23;;;6.40;;
2173;SDS011;1093;51.424;11.764;2023-10-09T00:05:53;9.30;;;7.30;;
2173;SDS011;1093;51.424;11.764;2023-10-09T00:08:21;9.20;;;6.60;;
2173;SDS011;1093;51.424;11.764;2023-10-09T00:10:52;12.17;;;7.67;;
2173;SDS011;1093;51.424;11.764;2023-10-09T00:13:21;8.30;;;6.67;;
2173;SDS011;1093;51.424;11.764;2023-10-09T00:15:53;9.10;;;6.53;;
2173;SDS011;1093;51.424;11.764;2023-10-09T00:18:25;8.83;;;5.77;;
2173;SDS011;1093;51.424;11.764;2023-10-09T00:20:55;9.73;;;6.67;;
2173;SDS011;1093;51.424;11.764;2023-10-09T00:23:26;8.00;;;5.80;;
2173;SDS011;1093;51.424;11.764;2023-10-09T00:25:53;8.80;;;5.67;;
2173;SDS011;1093;51.424;11.764;2023-10-09T00:28:35;7.37;;;6.53;;
2173;SDS011;1093;51.424;11.764;2023-10-09T00:31:03;13.80;;;6.03;;
2173;SDS011;1093;51.424;11.764;2023-10-09T00:33:32;10.30;;;6.50;;
2173;SDS011;1093;51.424;11.764;2023-10-09T00:36:03;7.50;;;6.30;;
2173;SDS011;1093;51.424;11.764;2023-10-09T00:38:34;10.40;;;6.20;;
2173;SDS011;1093;51.424;11.764;2023-10-09T00:41:04;10.37;;;6.20;;
2173;SDS011;1093;51.424;11.764;2023-10-09T00:43:38;7.33;;;6.53;;
2173;SDS011;1093;51.424;11.764;2023-10-09T00:46:08;8.70;;;7.00;;
2173;SDS011;1093;51.424;11.764;2023-10-09T00:48:49;8.97;;;7.07;;
2173;SDS011;1093;51.424;11.764;2023-10-09T00:51:21;10.87;;;7.00;;
2173;SDS011;1093;51.424;11.764;2023-10-09T00:53:50;9.50;;;7.00;;
2173;SDS011;1093;51.424;11.764;2023-10-09T00:56:20;8.30;;;7.30;;
2173;SDS011;1093;51.424;11.764;2023-10-09T00:58:56;7.63;;;6.73;;
2173;SDS011;1093;51.424;11.764;2023-10-09T01:01:32;9.20;;;7.17;;
2173;SDS011;1093;51.424;11.764;2023-10-09T01:04:02;8.30;;;6.90;;
2173;SDS011;1093;51.424;11.764;2023-10-09T01:06:34;11.10;;;8.50;;
2173;SDS011;1093;51.424;11.764;2023-10-09T01:09:08;12.23;;;8.40;;
2173;SDS011;1093;51.424;11.764;2023-10-09T01:11:37;11.27;;;7.77;;
2173;SDS011;1093;51.424;11.764;2023-10-09T01:14:15;8.73;;;7.37;;
2173;SDS011;1093;51.424;11.764;2023-10-09T01:16:46;10.00;;;8.13;;
2173;SDS011;1093;51.424;11.764;2023-10-09T01:19:13;14.13;;;8.47;;
2173;SDS011;1093;51.424;11.764;2023-10-09T01:21:48;9.27;;;7.73;;
2173;SDS011;1093;51.424;11.764;2023-10-09T01:24:17;11.13;;;8.00;;
2173;SDS011;1093;51.424;11.764;2023-10-09T01:26:46;17.03;;;9.47;;
2173;SDS011;1093;51.424;11.764;2023-10-09T01:29:15;11.13;;;9.63;;
2173;SDS011;1093;51.424;11.764;2023-10-09T01:31:44;14.87;;;8.83;;
2173;SDS011;1093;51.424;11.764;2023-10-09T01:34:19;12.20;;;7.97;;
2173;SDS011;1093;51.424;11.764;2023-10-09T01:36:49;13.10;;;8.07;;
2173;SDS011;1093;51.424;11.764;2023-10-09T01:39:22;14.47;;;9.10;;
2173;SDS011;1093;51.424;11.764;2023-10-09T01:41:51;13.87;;;8.33;;
2173;SDS011;1093;51.424;11.764;2023-10-09T01:44:24;12.80;;;8.60;;
2173;SDS011;1093;51.424;11.764;2023-10-09T01:46:59;10.90;;;8.30;;
2173;SDS011;1093;51.424;11.764;2023-10-09T01:49:32;11.80;;;9.27;;
2173;SDS011;1093;51.424;11.764;2023-10-09T01:52:01;13.17;;;8.10;;
2173;SDS011;1093;51.424;11.764;2023-10-09T01:54:34;12.90;;;8.93;;
2173;SDS011;1093;51.424;11.764;2023-10-09T01:57:03;11.07;;;8.20;;
2173;SDS011;1093;51.424;11.764;2023-10-09T01:59:34;15.60;;;8.93;;
2173;SDS011;1093;51.424;11.764;2023-10-09T02:02:03;11.43;;;8.53;;
2173;SDS011;1093;51.424;11.764;2023-10-09T02:04:39;12.83;;;8.67;;
2173;SDS011;1093;51.424;11.764;2023-10-09T02:07:06;11.20;;;7.40;;
2173;SDS011;1093;51.424;11.764;2023-10-09T02:09:35;12.50;;;8.50;;
2173;SDS011;1093;51.424;11.764;2023-10-09T02:12:09;9.60;;;7.63;;
2173;SDS011;1093;51.424;11.764;2023-10-09T02:14:37;11.60;;;7.83;;
2173;SDS011;1093;51.424;11.764;2023-10-09T02:17:07;12.67;;;8.67;;
2173;SDS011;1093;51.424;11.764;2023-10-09T02:19:43;15.67;;;9.07;;
2173;SDS011;1093;51.424;11.764;2023-10-09T02:22:13;11.90;;;7.87;;
2173;SDS011;1093;51.424;11.764;2023-10-09T02:24:43;10.77;;;6.93;;
2173;SDS011;1093;51.424;11.764;2023-10-09T02:27:22;7.10;;;6.07;;
2173;SDS011;1093;51.424;11.764;2023-10-09T02:30:10;10.80;;;7.40;;
2173;SDS011;1093;51.424;11.764;2023-10-09T02:32:52;8.53;;;6.40;;
2173;SDS011;1093;51.424;11.764;2023-10-09T02:35:28;6.60;;;5.80;;
2173;SDS011;1093;51.424;11.764;2023-10-09T02:38:04;7.10;;;6.10;;
2173;SDS011;1093;51.424;11.764;2023-10-09T02:40:40;9.03;;;7.10;;
2173;SDS011;1093;51.424;11.764;2023-10-09T02:43:28;9.57;;;6.40;;
2173;SDS011;1093;51.424;11.764;2023-10-09T02:46:09;7.80;;;6.27;;
2173;SDS011;1093;51.424;11.764;2023-10-09T02:48:40;12.93;;;7.33;;
2173;SDS011;1093;51.424;11.764;2023-10-09T02:51:12;10.80;;;6.17;;
2173;SDS011;1093;51.424;11.764;2023-10-09T02:53:47;13.10;;;7.10;;
2173;SDS011;1093;51.424;11.764;2023-10-09T02:56:16;9.53;;;7.07;;
2173;SDS011;1093;51.424;11.764;2023-10-09T02:58:49;6.73;;;5.97;;
2173;SDS011;1093;51.424;11.764;2023-10-09T03:01:16;9.17;;;5.90;;
2173;SDS011;1093;51.424;11.764;2023-10-09T03:03:43;8.90;;;6.80;;
2173;SDS011;1093;51.424;11.764;2023-10-09T03:06:10;8.53;;;6.57;;
2173;SDS011;1093;51.424;11.764;2023-10-09T03:08:38;8.77;;;6.90;;
2173;SDS011;1093;51.424;11.764;2023-10-09T03:11:06;11.57;;;6.03;;
2173;SDS011;1093;51.424;11.764;2023-10-09T03:13:39;6.87;;;6.07;;
2173;SDS011;1093;51.424;11.764;2023-10-09T03:16:08;6.97;;;5.03;;
2173;SDS011;1093;51.424;11.764;2023-10-09T03:18:39;7.60;;;4.97;;
2173;SDS011;1093;51.424;11.764;2023-10-09T03:21:07;7.33;;;4.83;;
2173;SDS011;1093;51.424;11.764;2023-10-09T03:23:33;7.27;;;6.00;;
2173;SDS011;1093;51.424;11.764;2023-10-09T03:26:00;6.40;;;5.00;;
2173;SDS011;1093;51.424;11.764;2023-10-09T03:28:28;7.70;;;5.07;;
2173;SDS011;1093;51.424;11.764;2023-10-09T03:30:57;4.97;;;4.43;;
2173;SDS011;1093;51.424;11.764;2023-10-09T03:33:27;6.80;;;5.40;;
2173;SDS011;1093;51.424;11.764;2023-10-09T03:35:55;8.40;;;5.30;;
2173;SDS011;1093;51.424;11.764;2023-10-09T03:38:22;6.40;;;5.30;;
2173;SDS011;1093;51.424;11.764;2023-10-09T03:40:49;7.87;;;5.00;;
2173;SDS011;1093;51.424;11.764;2023-10-09T03:43:17;6.43;;;4.90;;
2173;SDS011;1093;51.424;11.764;2023-10-09T03:45:44;4.70;;;4.17;;
2173;SDS011;1093;51.424;11.764;2023-10-09T03:48:19;8.33;;;6.40;;
2173;SDS011;1093;51.424;11.764;2023-10-09T03:50:51;5.83;;;4.70;;
2173;SDS011;1093;51.424;11.764;2023-10-09T03:53:33;7.70;;;5.37;;
2173;SDS011;1093;51.424;11.764;2023-10-09T03:56:01;8.60;;;4.73;;
2173;SDS011;1093;51.424;11.764;2023-10-09T03:58:30;6.53;;;4.77;;
2173;SDS011;1093;51.424;11.764;2023-10-09T04:00:59;11.50;;;6.53;;
2173;SDS011;1093;51.424;11.764;2023-10-09T04:03:29;9.80;;;4.87;;
2173;SDS011;1093;51.424;11.764;2023-10-09T04:05:55;8.00;;;5.47;;
2173;SDS011;1093;51.424;11.764;2023-10-09T04:08:23;7.03;;;5.20;;
2173;SDS011;1093;51.424;11.764;2023-10-09T04:10:55;5.27;;;4.63;;
2173;SDS011;1093;51.424;11.764;2023-10-09T04:13:26;10.87;;;5.83;;
2173;SDS011;1093;51.424;11.764;2023-10-09T04:15:59;11.30;;;5.70;;
2173;SDS011;1093;51.424;11.764;2023-10-09T04:18:36;11.80;;;5.93;;
2173;SDS011;1093;51.424;11.764;2023-10-09T04:21:04;9.70;;;5.20;;
2173;SDS011;1093;51.424;11.764;2023-10-09T04:23:59;8.97;;;5.83;;
2173;SDS011;1093;51.424;11.764;2023-10-09T04:26:35;7.97;;;6.07;;
2173;SDS011;1093;51.424;11.764;2023-10-09T04:29:02;10.07;;;6.10;;
2173;SDS011;1093;51.424;11.764;2023-10-09T04:31:30;10.33;;;5.70;;
2173;SDS011;1093;51.424;11.764;2023-10-09T04:34:04;10.97;;;6.50;;
2173;SDS011;1093;51.424;11.764;2023-10-09T04:36:54;9.20;;;6.83;;
2173;SDS011;1093;51.424;11.764;2023-10-09T04:39:25;11.60;;;6.67;;
2173;SDS011;1093;51.424;11.764;2023-10-09T04:42:02;10.47;;;7.10;;
2173;SDS011;1093;51.424;11.764;2023-10-09T04:44:43;8.80;;;6.70;;
2173;SDS011;1093;51.424;11.764;2023-10-09T04:47:25;9.40;;;6.00;;
2173;SDS011;1093;51.424;11.764;2023-10-09T04:50:02;13.07;;;6.33;;
2173;SDS011;1093;51.424;11.764;2023-10-09T04:52:36;12.70;;;6.57;;
2173;SDS011;1093;51.424;11.764;2023-10-09T04:55:18;15.83;;;9.67;;
2173;SDS011;1093;51.424;11.764;2023-10-09T04:57:49;18.90;;;8.07;;
2173;SDS011;1093;51.424;11.764;2023-10-09T05:00:34;12.57;;;7.40;;
2173;SDS011;1093;51.424;11.764;2023-10-09T05:03:26;12.57;;;8.00;;
2173;SDS011;1093;51.424;11.764;2023-10-09T05:05:56;10.90;;;7.30;;
2173;SDS011;1093;51.424;11.764;2023-10-09T05:08:25;15.57;;;7.30;;
2173;SDS011;1093;51.424;11.764;2023-10-09T05:10:58;12.33;;;7.17;;
2173;SDS011;1093;51.424;11.764;2023-10-09T05:13:40;18.60;;;7.90;;
2173;SDS011;1093;51.424;11.764;2023-10-09T05:16:10;13.10;;;8.37;;
2173;SDS011;1093;51.424;11.764;2023-10-09T05:18:43;12.00;;;7.07;;
2173;SDS011;1093;51.424;11.764;2023-10-09T05:21:22;17.00;;;10.43;;
2173;SDS011;1093;51.424;11.764;2023-10-09T05:24:02;11.93;;;8.00;;
2173;SDS011;1093;51.424;11.764;2023-10-09T05:26:45;16.83;;;9.40;;
2173;SDS011;1093;51.424;11.764;2023-10-09T05:29:18;14.77;;;8.30;;
2173;SDS011;1093;51.424;11.764;2023-10-09T05:31:45;13.20;;;8.70;;
2173;SDS011;1093;51.424;11.764;2023-10-09T05:34:22;16.10;;;9.30;;
2173;SDS011;1093;51.424;11.764;2023-10-09T05:36:58;17.53;;;9.97;;
2173;SDS011;1093;51.424;11.764;2023-10-09T05:39:41;15.23;;;8.73;;
2173;SDS011;1093;51.424;11.764;2023-10-09T05:42:08;15.83;;;9.77;;
2173;SDS011;1093;51.424;11.764;2023-10-09T05:44:43;17.33;;;8.93;;
2173;SDS011;1093;51.424;11.764;2023-10-09T05:47:41;11.80;;;8.40;;
2173;SDS011;1093;51.424;11.764;2023-10-09T05:50:18;16.63;;;9.90;;
2173;SDS011;1093;51.424;11.764;2023-10-09T05:53:00;17.43;;;8.73;;
2173;SDS011;1093;51.424;11.764;2023-10-09T05:55:34;16.20;;;8.73;;
2173;SDS011;1093;51.424;11.764;2023-10-09T05:58:18;14.60;;;8.93;;
2173;SDS011;1093;51.424;11.764;2023-10-09T06:01:03;17.30;;;9.17;;
2173;SDS011;1093;51.424;11.764;2023-10-09T06:03:47;16.97;;;11.83;;
2173;SDS011;1093;51.424;11.764;2023-10-09T06:06:23;12.17;;;8.63;;
2173;SDS011;1093;51.424;11.764;2023-10-09T06:09:03;18.93;;;10.73;;
2173;SDS011;1093;51.424;11.764;2023-10-09T06:11:48;16.57;;;9.50;;
2173;SDS011;1093;51.424;11.764;2023-10-09T06:14:20;14.60;;;9.43;;
2173;SDS011;1093;51.424;11.764;2023-10-09T06:16:50;17.07;;;8.80;;
2173;SDS011;1093;51.424;11.764;2023-10-09T06:19:42;14.43;;;8.80;;
2173;SDS011;1093;51.424;11.764;2023-10-09T06:22:08;13.10;;;8.53;;
2173;SDS011;1093;51.424;11.764;2023-10-09T06:25:07;17.63;;;9.10;;
2173;SDS011;1093;51.424;11.764;2023-10-09T06:27:37;20.50;;;10.53;;
2173;SDS011;1093;51.424;11.764;2023-10-09T06:30:21;15.30;;;11.40;;
2173;SDS011;1093;51.424;11.764;2023-10-09T06:32:52;16.03;;;9.70;;
2173;SDS011;1093;51.424;11.764;2023-10-09T06:35:33;15.13;;;10.00;;
2173;SDS011;1093;51.424;11.764;2023-10-09T06:38:01;12.23;;;8.50;;
2173;SDS011;1093;51.424;11.764;2023-10-09T06:40:48;19.40;;;10.10;;
2173;SDS011;1093;51.424;11.764;2023-10-09T06:43:42;17.67;;;9.33;;
2173;SDS011;1093;51.424;11.764;2023-10-09T06:46:15;14.13;;;9.00;;
2173;SDS011;1093;51.424;11.764;2023-10-09T06:49:22;14.67;;;9.10;;
2173;SDS011;1093;51.424;11.764;2023-10-09T06:52:05;15.93;;;8.90;;
2173;SDS011;1093;51.424;11.764;2023-10-09T06:54:52;16.30;;;10.70;;
2173;SDS011;1093;51.424;11.764;2023-10-09T06:57:22;16.57;;;8.90;;
2173;SDS011;1093;51.424;11.764;2023-10-09T07:00:13;16.40;;;9.57;;
2173;SDS011;1093;51.424;11.764;2023-10-09T07:03:01;22.27;;;10.90;;
2173;SDS011;1093;51.424;11.764;2023-10-09T07:05:37;21.40;;;10.63;;
2173;SDS011;1093;51.424;11.764;2023-10-09T07:08:25;18.00;;;9.90;;
2173;SDS011;1093;51.424;11.764;2023-10-09T07:10:57;14.63;;;10.10;;
2173;SDS011;1093;51.424;11.764;2023-10-09T07:13:46;18.33;;;10.50;;
2173;SDS011;1093;51.424;11.764;2023-10-09T07:16:22;16.97;;;10.80;;
2173;SDS011;1093;51.424;11.764;2023-10-09T07:19:03;22.57;;;9.83;;
2173;SDS011;1093;51.424;11.764;2023-10-09T07:21:51;22.00;;;12.27;;
2173;SDS011;1093;51.424;11.764;2023-10-09T07:24:19;16.53;;;10.27;;
2173;SDS011;1093;51.424;11.764;2023-10-09T07:26:59;15.03;;;9.97;;
2173;SDS011;1093;51.424;11.764;2023-10-09T07:29:32;19.53;;;10.43;;
2173;SDS011;1093;51.424;11.764;2023-10-09T07:32:12;16.37;;;9.47;;
2173;SDS011;1093;51.424;11.764;2023-10-09T07:34:45;20.07;;;11.07;;
2173;SDS011;1093;51.424;11.764;2023-10-09T07:37:26;18.37;;;11.00;;
2173;SDS011;1093;51.424;11.764;2023-10-09T07:39:55;17.70;;;11.40;;
2173;SDS011;1093;51.424;11.764;2023-10-09T07:42:23;23.77;;;11.20;;
2173;SDS011;1093;51.424;11.764;2023-10-09T07:45:09;25.23;;;11.40;;
2173;SDS011;1093;51.424;11.764;2023-10-09T07:47:58;25.63;;;14.43;;
2173;SDS011;1093;51.424;11.764;2023-10-09T07:50:34;18.90;;;12.17;;
2173;SDS011;1093;51.424;11.764;2023-10-09T07:53:07;22.20;;;12.00;;
2173;SDS011;1093;51.424;11.764;2023-10-09T07:55:51;22.83;;;12.50;;
2173;SDS011;1093;51.424;11.764;2023-10-09T07:58:20;24.40;;;11.93;;
2173;SDS011;1093;51.424;11.764;2023-10-09T08:00:51;25.67;;;12.60;;
2173;SDS011;1093;51.424;11.764;2023-10-09T08:03:41;18.73;;;11.60;;
2173;SDS011;1093;51.424;11.764;2023-10-09T08:06:11;21.57;;;11.37;;
2173;SDS011;1093;51.424;11.764;2023-10-09T08:08:57;24.87;;;12.57;;
2173;SDS011;1093;51.424;11.764;2023-10-09T08:11:42;17.40;;;12.30;;
2173;SDS011;1093;51.424;11.764;2023-10-09T08:14:23;22.00;;;13.23;;
2173;SDS011;1093;51.424;11.764;2023-10-09T08:17:04;23.00;;;14.03;;
2173;SDS011;1093;51.424;11.764;2023-10-09T08:19:36;21.07;;;11.40;;
2173;SDS011;1093;51.424;11.764;2023-10-09T08:22:18;24.53;;;13.00;;
2173;SDS011;1093;51.424;11.764;2023-10-09T08:25:09;25.50;;;11.80;;
2173;SDS011;1093;51.424;11.764;2023-10-09T08:28:07;25.57;;;14.00;;
2173;SDS011;1093;51.424;11.764;2023-10-09T08:30:51;23.00;;;14.47;;
2173;SDS011;1093;51.424;11.764;2023-10-09T08:33:29;27.40;;;17.73;;
2173;SDS011;1093;51.424;11.764;2023-10-09T08:36:06;22.80;;;13.37;;
2173;SDS011;1093;51.424;11.764;2023-10-09T08:38:34;25.50;;;13.73;;
2173;SDS011;1093;51.424;11.764;2023-10-09T08:41:08;29.30;;;16.93;;
2173;SDS011;1093;51.424;11.764;2023-10-09T08:43:46;27.07;;;14.90;;
2173;SDS011;1093;51.424;11.764;2023-10-09T08:46:18;32.07;;;15.40;;
2173;SDS011;1093;51.424;11.764;2023-10-09T08:48:45;22.33;;;14.00;;
2173;SDS011;1093;51.424;11.764;2023-10-09T08:51:13;30.23;;;15.77;;
2173;SDS011;1093;51.424;11.764;2023-10-09T08:53:41;25.90;;;15.00;;
2173;SDS011;1093;51.424;11.764;2023-10-09T08:56:11;27.77;;;16.70;;
2173;SDS011;1093;51.424;11.764;2023-10-09T08:58:40;28.50;;;15.30;;
2173;SDS011;1093;51.424;11.764;2023-10-09T09:01:08;26.80;;;16.53;;
2173;SDS011;1093;51.424;11.764;2023-10-09T09:03:40;24.67;;;15.10;;
2173;SDS011;1093;51.424;11.764;2023-10-09T09:06:08;30.00;;;16.17;;
2173;SDS011;1093;51.424;11.764;2023-10-09T09:08:36;37.77;;;17.97;;
2173;SDS011;1093;51.424;11.764;2023-10-09T09:11:03;30.20;;;16.97;;
2173;SDS011;1093;51.424;11.764;2023-10-09T09:13:43;37.07;;;18.10;;
2173;SDS011;1093;51.424;11.764;2023-10-09T09:16:19;36.83;;;18.57;;
2173;SDS011;1093;51.424;11.764;2023-10-09T09:18:50;27.37;;;15.63;;
2173;SDS011;1093;51.424;11.764;2023-10-09T09:21:30;35.20;;;18.00;;
2173;SDS011;1093;51.424;11.764;2023-10-09T09:24:03;25.77;;;15.00;;
2173;SDS011;1093;51.424;11.764;2023-10-09T09:26:41;26.77;;;18.03;;
2173;SDS011;1093;51.424;11.764;2023-10-09T09:29:12;30.20;;;16.53;;
2173;SDS011;1093;51.424;11.764;2023-10-09T09:31:54;27.10;;;17.00;;
2173;SDS011;1093;51.424;11.764;2023-10-09T09:34:22;26.57;;;15.90;;
2173;SDS011;1093;51.424;11.764;2023-10-09T09:36:54;24.80;;;16.20;;
2173;SDS011;1093;51.424;11.764;2023-10-09T09:39:23;30.10;;;16.90;;
2173;SDS011;1093;51.424;11.764;2023-10-09T09:41:55;28.87;;;17.93;;
2173;SDS011;1093;51.424;11.764;2023-10-09T09:44:30;31.37;;;18.00;;
2173;SDS011;1093;51.424;11.764;2023-10-09T09:47:00;33.20;;;18.37;;
2173;SDS011;1093;51.424;11.764;2023-10-09T09:49:31;31.70;;;18.77;;
2173;SDS011;1093;51.424;11.764;2023-10-09T09:52:03;34.37;;;18.97;;
2173;SDS011;1093;51.424;11.764;2023-10-09T09:54:35;37.60;;;21.40;;
2173;SDS011;1093;51.424;11.764;2023-10-09T09:57:03;34.77;;;18.27;;
2173;SDS011;1093;51.424;11.764;2023-10-09T09:59:36;33.30;;;17.23;;
2173;SDS011;1093;51.424;11.764;2023-10-09T10:02:17;30.40;;;18.30;;
2173;SDS011;1093;51.424;11.764;2023-10-09T10:04:51;29.30;;;17.70;;
2173;SDS011;1093;51.424;11.764;2023-10-09T10:07:22;33.33;;;18.73;;
2173;SDS011;1093;51.424;11.764;2023-10-09T10:09:54;30.00;;;17.93;;
2173;SDS011;1093;51.424;11.764;2023-10-09T10:18:32;28.93;;;16.10;;
2173;SDS011;1093;51.424;11.764;2023-10-09T10:21:09;23.93;;;15.80;;
2173;SDS011;1093;51.424;11.764;2023-10-09T10:23:40;25.73;;;15.27;;
2173;SDS011;1093;51.424;11.764;2023-10-09T10:26:16;32.50;;;17.97;;
2173;SDS011;1093;51.424;11.764;2023-10-09T10:31:52;25.27;;;14.60;;
2173;SDS011;1093;51.424;11.764;2023-10-09T10:34:22;23.90;;;14.90;;
2173;SDS011;1093;51.424;11.764;2023-10-09T10:36:50;21.13;;;14.93;;
2173;SDS011;1093;51.424;11.764;2023-10-09T10:39:24;23.87;;;14.43;;
2173;SDS011;1093;51.424;11.764;2023-10-09T10:42:08;22.13;;;15.70;;
2173;SDS011;1093;51.424;11.764;2023-10-09T10:44:40;19.87;;;13.47;;
2173;SDS011;1093;51.424;11.764;2023-10-09T10:47:10;27.30;;;15.00;;
2173;SDS011;1093;51.424;11.764;2023-10-09T10:49:52;21.57;;;13.90;;
2173;SDS011;1093;51.424;11.764;2023-10-09T10:52:24;30.77;;;14.50;;
2173;SDS011;1093;51.424;11.764;2023-10-09T10:55:10;18.40;;;12.90;;
2173;SDS011;1093;51.424;11.764;2023-10-09T10:57:44;20.53;;;13.40;;
2173;SDS011;1093;51.424;11.764;2023-10-09T11:00:25;17.97;;;11.13;;
2173;SDS011;1093;51.424;11.764;2023-10-09T11:03:16;24.23;;;11.90;;
2173;SDS011;1093;51.424;11.764;2023-10-09T11:05:56;21.83;;;12.23;;
2173;SDS011;1093;51.424;11.764;2023-10-09T11:08:38;23.10;;;13.40;;
2173;SDS011;1093;51.424;11.764;2023-10-09T11:11:19;19.30;;;12.03;;
2173;SDS011;1093;51.424;11.764;2023-10-09T11:14:09;19.70;;;11.57;;
2173;SDS011;1093;51.424;11.764;2023-10-09T11:16:39;18.17;;;10.73;;
2173;SDS011;1093;51.424;11.764;2023-10-09T11:19:13;18.73;;;10.70;;
2173;SDS011;1093;51.424;11.764;2023-10-09T11:21:59;20.57;;;10.57;;
2173;SDS011;1093;51.424;11.764;2023-10-09T11:24:57;21.10;;;10.83;;
2173;SDS011;1093;51.424;11.764;2023-10-09T11:27:39;15.43;;;10.17;;
2173;SDS011;1093;51.424;11.764;2023-10-09T11:30:15;17.30;;;10.80;;
2173;SDS011;1093;51.424;11.764;2023-10-09T11:33:06;16.17;;;11.00;;
2173;SDS011;1093;51.424;11.764;2023-10-09T11:35:39;15.63;;;10.03;;
2173;SDS011;1093;51.424;11.764;2023-10-09T11:38:09;20.30;;;10.43;;
2173;SDS011;1093;51.424;11.764;2023-10-09T11:40:46;16.07;;;10.20;;
2173;SDS011;1093;51.424;11.764;2023-10-09T11:43:44;19.33;;;11.20;;
2173;SDS011;1093;51.424;11.764;2023-10-09T11:46:16;14.93;;;9.10;;
2173;SDS011;1093;51.424;11.764;2023-10-09T11:49:02;15.87;;;10.43;;
2173;SDS011;1093;51.424;11.764;2023-10-09T11:51:52;16.10;;;9.83;;
2173;SDS011;1093;51.424;11.764;2023-10-09T11:54:57;18.33;;;10.03;;
2173;SDS011;1093;51.424;11.764;2023-10-09T11:57:25;20.77;;;11.53;;
2173;SDS011;1093;51.424;11.764;2023-10-09T11:59:56;20.03;;;11.57;;
2173;SDS011;1093;51.424;11.764;2023-10-09T12:02:24;20.47;;;10.77;;
2173;SDS011;1093;51.424;11.764;2023-10-09T12:04:51;19.40;;;12.13;;
2173;SDS011;1093;51.424;11.764;2023-10-09T12:07:21;21.57;;;12.80;;
2173;SDS011;1093;51.424;11.764;2023-10-09T12:09:50;21.90;;;14.17;;
2173;SDS011;1093;51.424;11.764;2023-10-09T12:12:23;21.50;;;13.90;;
2173;SDS011;1093;51.424;11.764;2023-10-09T12:14:52;21.97;;;13.40;;
2173;SDS011;1093;51.424;11.764;2023-10-09T12:17:19;28.03;;;14.80;;
2173;SDS011;1093;51.424;11.764;2023-10-09T12:19:49;21.17;;;13.70;;
2173;SDS011;1093;51.424;11.764;2023-10-09T12:22:17;19.37;;;14.07;;
2173;SDS011;1093;51.424;11.764;2023-10-09T12:24:46;22.00;;;12.73;;
2173;SDS011;1093;51.424;11.764;2023-10-09T12:27:13;25.17;;;14.03;;
2173;SDS011;1093;51.424;11.764;2023-10-09T12:29:46;20.40;;;14.07;;
2173;SDS011;1093;51.424;11.764;2023-10-09T12:32:14;26.13;;;14.83;;
2173;SDS011;1093;51.424;11.764;2023-10-09T12:34:44;24.87;;;13.03;;
2173;SDS011;1093;51.424;11.764;2023-10-09T12:37:15;23.50;;;15.50;;
2173;SDS011;1093;51.424;11.764;2023-10-09T12:39:45;31.50;;;15.90;;
2173;SDS011;1093;51.424;11.764;2023-10-09T12:42:12;28.57;;;15.30;;
2173;SDS011;1093;51.424;11.764;2023-10-09T12:44:42;22.30;;;14.43;;
2173;SDS011;1093;51.424;11.764;2023-10-09T12:47:10;27.30;;;14.57;;
2173;SDS011;1093;51.424;11.764;2023-10-09T12:49:37;30.93;;;16.93;;
2173;SDS011;1093;51.424;11.764;2023-10-09T12:52:06;24.17;;;13.63;;
2173;SDS011;1093;51.424;11.764;2023-10-09T12:54:40;23.07;;;14.90;;
2173;SDS011;1093;51.424;11.764;2023-10-09T12:57:08;23.13;;;14.60;;
2173;SDS011;1093;51.424;11.764;2023-10-09T12:59:38;24.10;;;14.60;;
2173;SDS011;1093;51.424;11.764;2023-10-09T13:02:11;25.10;;;15.10;;
2173;SDS011;1093;51.424;11.764;2023-10-09T13:04:38;24.10;;;14.50;;
2173;SDS011;1093;51.424;11.764;2023-10-09T13:07:07;26.17;;;14.30;;
2173;SDS011;1093;51.424;11.764;2023-10-09T13:09:34;25.50;;;16.23;;
2173;SDS011;1093;51.424;11.764;2023-10-09T13:12:07;27.93;;;16.73;;
2173;SDS011;1093;51.424;11.764;2023-10-09T13:14:35;30.00;;;17.00;;
2173;SDS011;1093;51.424;11.764;2023-10-09T13:17:02;31.33;;;15.90;;
2173;SDS011;1093;51.424;11.764;2023-10-09T13:19:36;24.80;;;14.00;;
2173;SDS011;1093;51.424;11.764;2023-10-09T13:22:03;20.90;;;12.77;;
2173;SDS011;1093;51.424;11.764;2023-10-09T13:24:37;24.70;;;13.43;;
2173;SDS011;1093;51.424;11.764;2023-10-09T13:27:05;20.70;;;13.17;;
2173;SDS011;1093;51.424;11.764;2023-10-09T13:29:34;22.63;;;14.13;;
2173;SDS011;1093;51.424;11.764;2023-10-09T13:32:04;26.00;;;14.53;;
2173;SDS011;1093;51.424;11.764;2023-10-09T13:34:40;25.23;;;14.00;;
2173;SDS011;1093;51.424;11.764;2023-10-09T13:37:09;21.27;;;14.20;;
2173;SDS011;1093;51.424;11.764;2023-10-09T13:39:38;22.07;;;14.43;;
2173;SDS011;1093;51.424;11.764;2023-10-09T13:42:17;22.27;;;13.83;;
2173;SDS011;1093;51.424;11.764;2023-10-09T13:44:44;28.40;;;14.87;;
2173;SDS011;1093;51.424;11.764;2023-10-09T13:47:13;25.60;;;14.37;;
2173;SDS011;1093;51.424;11.764;2023-10-09T13:49:47;19.67;;;12.67;;
2173;SDS011;1093;51.424;11.764;2023-10-09T13:52:16;22.83;;;14.00;;
2173;SDS011;1093;51.424;11.764;2023-10-09T13:54:44;20.10;;;13.40;;
2173;SDS011;1093;51.424;11.764;2023-10-09T13:57:14;23.13;;;13.80;;
2173;SDS011;1093;51.424;11.764;2023-10-09T13:59:42;23.20;;;13.97;;
2173;SDS011;1093;51.424;11.764;2023-10-09T14:02:14;19.30;;;13.67;;
2173;SDS011;1093;51.424;11.764;2023-10-09T14:04:43;25.87;;;14.57;;
2173;SDS011;1093;51.424;11.764;2023-10-09T14:07:12;18.47;;;12.27;;
2173;SDS011;1093;51.424;11.764;2023-10-09T14:09:42;18.80;;;13.20;;
2173;SDS011;1093;51.424;11.764;2023-10-09T14:12:20;22.03;;;14.00;;
2173;SDS011;1093;51.424;11.764;2023-10-09T14:14:47;25.83;;;15.80;;
2173;SDS011;1093;51.424;11.764;2023-10-09T14:17:14;21.97;;;12.93;;
2173;SDS011;1093;51.424;11.764;2023-10-09T14:19:46;23.50;;;12.70;;
2173;SDS011;1093;51.424;11.764;2023-10-09T14:22:15;20.47;;;13.77;;
2173;SDS011;1093;51.424;11.764;2023-10-09T14:24:42;17.50;;;12.27;;
2173;SDS011;1093;51.424;11.764;2023-10-09T14:27:10;22.97;;;14.40;;
2173;SDS011;1093;51.424;11.764;2023-10-09T14:29:42;24.53;;;12.23;;
2173;SDS011;1093;51.424;11.764;2023-10-09T14:32:10;19.43;;;12.80;;
2173;SDS011;1093;51.424;11.764;2023-10-09T14:34:38;24.03;;;13.13;;
2173;SDS011;1093;51.424;11.764;2023-10-09T14:37:08;16.63;;;12.83;;
2173;SDS011;1093;51.424;11.764;2023-10-09T14:39:38;20.50;;;13.40;;
2173;SDS011;1093;51.424;11.764;2023-10-09T14:42:05;23.50;;;12.57;;
2173;SDS011;1093;51.424;11.764;2023-10-09T14:44:34;26.07;;;12.73;;
2173;SDS011;1093;51.424;11.764;2023-10-09T14:47:02;25.23;;;13.40;;
2173;SDS011;1093;51.424;11.764;2023-10-09T14:49:30;22.73;;;13.57;;
2173;SDS011;1093;51.424;11.764;2023-10-09T14:52:00;20.77;;;13.00;;
2173;SDS011;1093;51.424;11.764;2023-10-09T14:54:27;21.47;;;14.73;;
2173;SDS011;1093;51.424;11.764;2023-10-09T14:56:55;20.57;;;12.30;;
2173;SDS011;1093;51.424;11.764;2023-10-09T14:59:22;22.83;;;14.33;;
2173;SDS011;1093;51.424;11.764;2023-10-09T15:01:50;21.97;;;13.90;;
2173;SDS011;1093;51.424;11.764;2023-10-09T15:04:18;23.70;;;13.10;;
2173;SDS011;1093;51.424;11.764;2023-10-09T15:06:45;19.00;;;12.43;;
2173;SDS011;1093;51.424;11.764;2023-10-09T15:09:14;19.37;;;11.43;;
2173;SDS011;1093;51.424;11.764;2023-10-09T15:11:48;22.33;;;13.03;;
2173;SDS011;1093;51.424;11.764;2023-10-09T15:14:16;19.53;;;13.57;;
2173;SDS011;1093;51.424;11.764;2023-10-09T15:16:44;17.73;;;11.97;;
2173;SDS011;1093;51.424;11.764;2023-10-09T15:19:12;21.10;;;12.87;;
2173;SDS011;1093;51.424;11.764;2023-10-09T15:21:41;20.33;;;13.00;;
2173;SDS011;1093;51.424;11.764;2023-10-09T15:24:10;21.43;;;13.70;;
2173;SDS011;1093;51.424;11.764;2023-10-09T15:26:40;15.97;;;11.40;;
2173;SDS011;1093;51.424;11.764;2023-10-09T15:29:07;21.53;;;11.80;;
2173;SDS011;1093;51.424;11.764;2023-10-09T15:31:36;17.40;;;11.27;;